sensor_id;sensor_type;location;lat;lon;timestamp;P1;durP1;ratioP1;P2;durP2;ratioP2
5819;SDS011;2936;47.348;9.640;2023-03-21T00:02:11;9.93;;;8.85;;
5819;SDS011;2936;47.348;9.640;2023-03-21T00:04:38;10.27;;;8.55;;
5819;SDS011;2936;47.348;9.640;2023-03-21T00:07:05;23.50;;;9.85;;
5819;SDS011;2936;47.348;9.640;2023-03-21T00:09:32;11.63;;;8.38;;
5819;SDS011;2936;47.348;9.640;2023-03-21T00:12:01;10.18;;;8.65;;
5819;SDS011;2936;47.348;9.640;2023-03-21T00:14:33;16.77;;;8.63;;
5819;SDS011;2936;47.348;9.640;2023-03-21T00:17:02;11.20;;;9.60;;
5819;SDS011;2936;47.348;9.640;2023-03-21T00:19:29;12.18;;;8.98;;
5819;SDS011;2936;47.348;9.640;2023-03-21T00:21:57;13.65;;;8.98;;
5819;SDS011;2936;47.348;9.640;2023-03-21T00:24:26;11.38;;;9.13;;
5819;SDS011;2936;47.348;9.640;2023-03-21T00:26:53;12.15;;;9.52;;
5819;SDS011;2936;47.348;9.640;2023-03-21T00:29:22;9.90;;;8.95;;
5819;SDS011;2936;47.348;9.640;2023-03-21T00:31:49;17.38;;;9.75;;
5819;SDS011;2936;47.348;9.640;2023-03-21T00:34:16;11.65;;;9.30;;
5819;SDS011;2936;47.348;9.640;2023-03-21T00:36:44;11.20;;;9.38;;
5819;SDS011;2936;47.348;9.640;2023-03-21T00:39:12;14.48;;;8.50;;
5819;SDS011;2936;47.348;9.640;2023-03-21T00:41:39;10.60;;;8.80;;
5819;SDS011;2936;47.348;9.640;2023-03-21T00:44:07;9.07;;;7.47;;
5819;SDS011;2936;47.348;9.640;2023-03-21T00:46:37;8.23;;;7.43;;
5819;SDS011;2936;47.348;9.640;2023-03-21T00:49:05;17.38;;;8.70;;
5819;SDS011;2936;47.348;9.640;2023-03-21T00:51:32;9.77;;;7.65;;
5819;SDS011;2936;47.348;9.640;2023-03-21T00:54:00;9.18;;;7.50;;
5819;SDS011;2936;47.348;9.640;2023-03-21T00:56:29;8.45;;;7.60;;
5819;SDS011;2936;47.348;9.640;2023-03-21T00:58:56;9.57;;;7.53;;
5819;SDS011;2936;47.348;9.640;2023-03-21T01:01:24;7.97;;;7.25;;
5819;SDS011;2936;47.348;9.640;2023-03-21T01:03:57;7.50;;;6.88;;
5819;SDS011;2936;47.348;9.640;2023-03-21T01:06:29;9.80;;;7.32;;
5819;SDS011;2936;47.348;9.640;2023-03-21T01:08:57;17.63;;;8.20;;
5819;SDS011;2936;47.348;9.640;2023-03-21T01:11:25;14.77;;;7.75;;
5819;SDS011;2936;47.348;9.640;2023-03-21T01:13:53;10.13;;;8.38;;
5819;SDS011;2936;47.348;9.640;2023-03-21T01:16:22;9.32;;;8.40;;
5819;SDS011;2936;47.348;9.640;2023-03-21T01:18:50;9.63;;;7.65;;
5819;SDS011;2936;47.348;9.640;2023-03-21T01:21:19;8.15;;;7.40;;
5819;SDS011;2936;47.348;9.640;2023-03-21T01:23:46;8.20;;;7.40;;
5819;SDS011;2936;47.348;9.640;2023-03-21T01:26:13;10.77;;;7.45;;
5819;SDS011;2936;47.348;9.640;2023-03-21T01:28:41;11.88;;;8.23;;
5819;SDS011;2936;47.348;9.640;2023-03-21T01:31:10;7.50;;;6.80;;
5819;SDS011;2936;47.348;9.640;2023-03-21T01:33:38;7.32;;;6.72;;
5819;SDS011;2936;47.348;9.640;2023-03-21T01:36:05;7.95;;;7.10;;
5819;SDS011;2936;47.348;9.640;2023-03-21T01:38:34;8.15;;;7.40;;
5819;SDS011;2936;47.348;9.640;2023-03-21T01:41:01;8.65;;;7.10;;
5819;SDS011;2936;47.348;9.640;2023-03-21T01:43:29;8.13;;;7.20;;
5819;SDS011;2936;47.348;9.640;2023-03-21T01:46:05;9.63;;;6.80;;
5819;SDS011;2936;47.348;9.640;2023-03-21T01:48:34;6.72;;;6.13;;
5819;SDS011;2936;47.348;9.640;2023-03-21T01:51:03;6.35;;;5.72;;
5819;SDS011;2936;47.348;9.640;2023-03-21T01:53:31;6.50;;;5.90;;
5819;SDS011;2936;47.348;9.640;2023-03-21T01:56:02;6.38;;;5.80;;
5819;SDS011;2936;47.348;9.640;2023-03-21T01:58:31;6.13;;;5.63;;
5819;SDS011;2936;47.348;9.640;2023-03-21T02:00:58;5.65;;;5.35;;
5819;SDS011;2936;47.348;9.640;2023-03-21T02:03:27;5.80;;;5.40;;
5819;SDS011;2936;47.348;9.640;2023-03-21T02:06:04;6.47;;;5.80;;
5819;SDS011;2936;47.348;9.640;2023-03-21T02:08:32;6.10;;;5.60;;
5819;SDS011;2936;47.348;9.640;2023-03-21T02:11:00;5.47;;;5.13;;
5819;SDS011;2936;47.348;9.640;2023-03-21T02:13:28;5.47;;;4.97;;
5819;SDS011;2936;47.348;9.640;2023-03-21T02:15:57;5.53;;;5.13;;
5819;SDS011;2936;47.348;9.640;2023-03-21T02:18:28;7.55;;;5.53;;
5819;SDS011;2936;47.348;9.640;2023-03-21T02:26:35;5.18;;;4.70;;
5819;SDS011;2936;47.348;9.640;2023-03-21T02:29:06;5.60;;;5.13;;
5819;SDS011;2936;47.348;9.640;2023-03-21T02:31:39;5.90;;;5.40;;
5819;SDS011;2936;47.348;9.640;2023-03-21T02:34:14;6.05;;;5.55;;
5819;SDS011;2936;47.348;9.640;2023-03-21T02:36:53;9.00;;;5.07;;
5819;SDS011;2936;47.348;9.640;2023-03-21T02:39:23;5.18;;;4.80;;
5819;SDS011;2936;47.348;9.640;2023-03-21T02:41:53;8.07;;;5.32;;
5819;SDS011;2936;47.348;9.640;2023-03-21T02:44:25;5.80;;;5.30;;
5819;SDS011;2936;47.348;9.640;2023-03-21T02:46:56;5.78;;;5.38;;
5819;SDS011;2936;47.348;9.640;2023-03-21T02:49:25;6.32;;;5.72;;
5819;SDS011;2936;47.348;9.640;2023-03-21T02:51:57;6.55;;;5.68;;
5819;SDS011;2936;47.348;9.640;2023-03-21T02:54:25;6.38;;;5.90;;
5819;SDS011;2936;47.348;9.640;2023-03-21T02:56:54;6.38;;;5.88;;
5819;SDS011;2936;47.348;9.640;2023-03-21T02:59:22;6.00;;;5.50;;
5819;SDS011;2936;47.348;9.640;2023-03-21T03:01:51;6.85;;;4.60;;
5819;SDS011;2936;47.348;9.640;2023-03-21T03:04:19;5.05;;;4.68;;
5819;SDS011;2936;47.348;9.640;2023-03-21T03:06:52;5.75;;;4.85;;
5819;SDS011;2936;47.348;9.640;2023-03-21T03:09:27;5.47;;;5.10;;
5819;SDS011;2936;47.348;9.640;2023-03-21T03:11:57;5.32;;;5.03;;
5819;SDS011;2936;47.348;9.640;2023-03-21T03:14:35;6.32;;;5.72;;
5819;SDS011;2936;47.348;9.640;2023-03-21T03:17:10;5.78;;;5.25;;
5819;SDS011;2936;47.348;9.640;2023-03-21T03:19:43;8.98;;;5.65;;
5819;SDS011;2936;47.348;9.640;2023-03-21T03:22:13;6.22;;;5.53;;
5819;SDS011;2936;47.348;9.640;2023-03-21T03:24:43;5.85;;;5.45;;
5819;SDS011;2936;47.348;9.640;2023-03-21T03:27:13;5.82;;;5.50;;
5819;SDS011;2936;47.348;9.640;2023-03-21T03:29:43;10.38;;;6.22;;
5819;SDS011;2936;47.348;9.640;2023-03-21T03:32:12;6.78;;;6.18;;
5819;SDS011;2936;47.348;9.640;2023-03-21T03:34:42;7.32;;;6.72;;
5819;SDS011;2936;47.348;9.640;2023-03-21T03:37:14;6.57;;;6.00;;
5819;SDS011;2936;47.348;9.640;2023-03-21T03:39:44;6.38;;;5.88;;
5819;SDS011;2936;47.348;9.640;2023-03-21T03:42:13;9.55;;;6.28;;
5819;SDS011;2936;47.348;9.640;2023-03-21T03:44:41;5.72;;;5.32;;
5819;SDS011;2936;47.348;9.640;2023-03-21T03:47:09;6.30;;;5.72;;
5819;SDS011;2936;47.348;9.640;2023-03-21T03:49:38;6.68;;;6.25;;
5819;SDS011;2936;47.348;9.640;2023-03-21T03:52:09;6.65;;;6.00;;
5819;SDS011;2936;47.348;9.640;2023-03-21T03:54:38;6.38;;;5.72;;
5819;SDS011;2936;47.348;9.640;2023-03-21T03:57:07;6.00;;;5.50;;
5819;SDS011;2936;47.348;9.640;2023-03-21T03:59:36;6.60;;;6.00;;
5819;SDS011;2936;47.348;9.640;2023-03-21T04:02:04;6.50;;;5.85;;
5819;SDS011;2936;47.348;9.640;2023-03-21T04:04:31;6.28;;;5.78;;
5819;SDS011;2936;47.348;9.640;2023-03-21T04:07:01;10.35;;;7.00;;
5819;SDS011;2936;47.348;9.640;2023-03-21T04:09:29;8.00;;;6.18;;
5819;SDS011;2936;47.348;9.640;2023-03-21T04:11:56;7.78;;;6.45;;
5819;SDS011;2936;47.348;9.640;2023-03-21T04:14:25;6.00;;;5.57;;
5819;SDS011;2936;47.348;9.640;2023-03-21T04:16:53;7.30;;;6.65;;
5819;SDS011;2936;47.348;9.640;2023-03-21T04:19:20;9.85;;;6.60;;
5819;SDS011;2936;47.348;9.640;2023-03-21T04:21:47;7.32;;;6.75;;
5819;SDS011;2936;47.348;9.640;2023-03-21T04:24:14;12.93;;;6.97;;
5819;SDS011;2936;47.348;9.640;2023-03-21T04:26:42;8.95;;;6.55;;
5819;SDS011;2936;47.348;9.640;2023-03-21T04:29:09;8.05;;;7.35;;
5819;SDS011;2936;47.348;9.640;2023-03-21T04:31:38;8.23;;;7.10;;
5819;SDS011;2936;47.348;9.640;2023-03-21T04:34:05;7.28;;;6.68;;
5819;SDS011;2936;47.348;9.640;2023-03-21T04:36:34;7.32;;;6.63;;
5819;SDS011;2936;47.348;9.640;2023-03-21T04:39:07;9.27;;;6.28;;
5819;SDS011;2936;47.348;9.640;2023-03-21T04:41:36;6.95;;;6.32;;
5819;SDS011;2936;47.348;9.640;2023-03-21T04:44:04;6.63;;;6.03;;
5819;SDS011;2936;47.348;9.640;2023-03-21T04:46:32;5.78;;;5.38;;
5819;SDS011;2936;47.348;9.640;2023-03-21T04:49:00;7.38;;;5.75;;
5819;SDS011;2936;47.348;9.640;2023-03-21T04:51:28;6.50;;;6.05;;
5819;SDS011;2936;47.348;9.640;2023-03-21T04:53:56;5.80;;;5.40;;
5819;SDS011;2936;47.348;9.640;2023-03-21T04:56:23;7.65;;;6.95;;
5819;SDS011;2936;47.348;9.640;2023-03-21T04:58:56;8.70;;;6.53;;
5819;SDS011;2936;47.348;9.640;2023-03-21T05:01:23;6.30;;;5.80;;
5819;SDS011;2936;47.348;9.640;2023-03-21T05:03:55;6.82;;;6.13;;
5819;SDS011;2936;47.348;9.640;2023-03-21T05:06:25;7.00;;;6.28;;
5819;SDS011;2936;47.348;9.640;2023-03-21T05:08:52;6.95;;;6.25;;
5819;SDS011;2936;47.348;9.640;2023-03-21T05:11:24;7.65;;;6.35;;
5819;SDS011;2936;47.348;9.640;2023-03-21T05:13:51;13.70;;;6.30;;
5819;SDS011;2936;47.348;9.640;2023-03-21T05:16:20;7.13;;;6.43;;
5819;SDS011;2936;47.348;9.640;2023-03-21T05:18:50;6.88;;;6.22;;
5819;SDS011;2936;47.348;9.640;2023-03-21T05:21:18;6.22;;;5.72;;
5819;SDS011;2936;47.348;9.640;2023-03-21T05:23:48;9.93;;;6.72;;
5819;SDS011;2936;47.348;9.640;2023-03-21T05:26:18;10.20;;;7.85;;
5819;SDS011;2936;47.348;9.640;2023-03-21T05:28:46;20.70;;;6.88;;
5819;SDS011;2936;47.348;9.640;2023-03-21T05:31:14;10.07;;;6.10;;
5819;SDS011;2936;47.348;9.640;2023-03-21T05:33:42;11.45;;;6.70;;
5819;SDS011;2936;47.348;9.640;2023-03-21T05:36:10;8.77;;;6.82;;
5819;SDS011;2936;47.348;9.640;2023-03-21T05:38:38;16.52;;;7.95;;
5819;SDS011;2936;47.348;9.640;2023-03-21T05:41:08;14.02;;;7.82;;
5819;SDS011;2936;47.348;9.640;2023-03-21T05:43:35;9.23;;;7.45;;
5819;SDS011;2936;47.348;9.640;2023-03-21T05:46:03;8.13;;;7.00;;
5819;SDS011;2936;47.348;9.640;2023-03-21T05:48:30;9.85;;;7.03;;
5819;SDS011;2936;47.348;9.640;2023-03-21T05:50:58;9.63;;;7.75;;
5819;SDS011;2936;47.348;9.640;2023-03-21T05:53:26;8.10;;;7.30;;
5819;SDS011;2936;47.348;9.640;2023-03-21T05:55:53;10.05;;;7.10;;
5819;SDS011;2936;47.348;9.640;2023-03-21T05:58:22;16.00;;;8.57;;
5819;SDS011;2936;47.348;9.640;2023-03-21T06:00:49;8.10;;;7.25;;
5819;SDS011;2936;47.348;9.640;2023-03-21T06:03:17;9.48;;;7.38;;
5819;SDS011;2936;47.348;9.640;2023-03-21T06:05:44;10.48;;;6.55;;
5819;SDS011;2936;47.348;9.640;2023-03-21T06:08:12;16.50;;;7.28;;
5819;SDS011;2936;47.348;9.640;2023-03-21T06:10:39;9.20;;;7.15;;
5819;SDS011;2936;47.348;9.640;2023-03-21T06:13:07;12.13;;;6.72;;
5819;SDS011;2936;47.348;9.640;2023-03-21T06:15:35;18.48;;;6.75;;
5819;SDS011;2936;47.348;9.640;2023-03-21T06:18:03;6.65;;;6.13;;
5819;SDS011;2936;47.348;9.640;2023-03-21T06:20:30;14.85;;;6.88;;
5819;SDS011;2936;47.348;9.640;2023-03-21T06:22:58;13.82;;;6.63;;
5819;SDS011;2936;47.348;9.640;2023-03-21T06:25:25;7.68;;;6.13;;
5819;SDS011;2936;47.348;9.640;2023-03-21T06:27:52;6.75;;;6.15;;
5819;SDS011;2936;47.348;9.640;2023-03-21T06:30:19;9.32;;;6.70;;
5819;SDS011;2936;47.348;9.640;2023-03-21T06:32:48;5.88;;;5.38;;
5819;SDS011;2936;47.348;9.640;2023-03-21T06:35:17;6.60;;;5.15;;
5819;SDS011;2936;47.348;9.640;2023-03-21T06:37:45;16.42;;;5.68;;
5819;SDS011;2936;47.348;9.640;2023-03-21T06:40:13;6.95;;;6.15;;
5819;SDS011;2936;47.348;9.640;2023-03-21T06:42:40;5.03;;;4.63;;
5819;SDS011;2936;47.348;9.640;2023-03-21T06:45:08;12.13;;;5.30;;
5819;SDS011;2936;47.348;9.640;2023-03-21T06:47:35;16.33;;;7.75;;
5819;SDS011;2936;47.348;9.640;2023-03-21T06:50:04;13.05;;;7.68;;
5819;SDS011;2936;47.348;9.640;2023-03-21T06:52:32;38.03;;;9.63;;
5819;SDS011;2936;47.348;9.640;2023-03-21T06:54:59;10.38;;;9.00;;
5819;SDS011;2936;47.348;9.640;2023-03-21T06:57:26;9.75;;;8.75;;
5819;SDS011;2936;47.348;9.640;2023-03-21T06:59:54;11.25;;;8.05;;
5819;SDS011;2936;47.348;9.640;2023-03-21T07:02:21;15.48;;;8.27;;
5819;SDS011;2936;47.348;9.640;2023-03-21T07:04:48;15.32;;;11.90;;
5819;SDS011;2936;47.348;9.640;2023-03-21T07:07:17;11.48;;;8.50;;
5819;SDS011;2936;47.348;9.640;2023-03-21T07:09:44;16.27;;;8.55;;
5819;SDS011;2936;47.348;9.640;2023-03-21T07:12:12;27.67;;;10.07;;
5819;SDS011;2936;47.348;9.640;2023-03-21T07:14:39;34.28;;;9.50;;
5819;SDS011;2936;47.348;9.640;2023-03-21T07:17:06;13.85;;;9.48;;
5819;SDS011;2936;47.348;9.640;2023-03-21T07:19:34;8.77;;;7.90;;
5819;SDS011;2936;47.348;9.640;2023-03-21T07:22:01;13.00;;;7.18;;
5819;SDS011;2936;47.348;9.640;2023-03-21T07:24:30;29.38;;;7.70;;
5819;SDS011;2936;47.348;9.640;2023-03-21T07:26:58;8.40;;;6.45;;
5819;SDS011;2936;47.348;9.640;2023-03-21T07:29:25;9.60;;;7.30;;
5819;SDS011;2936;47.348;9.640;2023-03-21T07:31:52;7.35;;;6.82;;
5819;SDS011;2936;47.348;9.640;2023-03-21T07:34:20;16.23;;;9.07;;
5819;SDS011;2936;47.348;9.640;2023-03-21T07:36:47;8.80;;;7.72;;
5819;SDS011;2936;47.348;9.640;2023-03-21T07:39:14;50.33;;;8.85;;
5819;SDS011;2936;47.348;9.640;2023-03-21T07:41:45;9.52;;;8.63;;
5819;SDS011;2936;47.348;9.640;2023-03-21T07:44:13;8.70;;;7.90;;
5819;SDS011;2936;47.348;9.640;2023-03-21T07:46:40;10.95;;;8.32;;
5819;SDS011;2936;47.348;9.640;2023-03-21T07:49:09;27.23;;;9.88;;
5819;SDS011;2936;47.348;9.640;2023-03-21T07:51:36;16.05;;;7.90;;
5819;SDS011;2936;47.348;9.640;2023-03-21T07:54:06;9.05;;;8.15;;
5819;SDS011;2936;47.348;9.640;2023-03-21T07:56:34;10.30;;;8.25;;
5819;SDS011;2936;47.348;9.640;2023-03-21T07:59:03;9.27;;;7.63;;
5819;SDS011;2936;47.348;9.640;2023-03-21T08:01:32;10.43;;;7.55;;
5819;SDS011;2936;47.348;9.640;2023-03-21T08:03:59;7.72;;;6.95;;
5819;SDS011;2936;47.348;9.640;2023-03-21T08:06:27;11.73;;;7.22;;
5819;SDS011;2936;47.348;9.640;2023-03-21T08:08:56;8.98;;;7.10;;
5819;SDS011;2936;47.348;9.640;2023-03-21T08:11:26;15.10;;;7.72;;
5819;SDS011;2936;47.348;9.640;2023-03-21T08:13:55;10.95;;;7.70;;
5819;SDS011;2936;47.348;9.640;2023-03-21T08:16:25;11.82;;;7.20;;
5819;SDS011;2936;47.348;9.640;2023-03-21T08:18:52;8.13;;;7.50;;
5819;SDS011;2936;47.348;9.640;2023-03-21T08:21:20;14.65;;;7.88;;
5819;SDS011;2936;47.348;9.640;2023-03-21T08:23:48;14.60;;;7.45;;
5819;SDS011;2936;47.348;9.640;2023-03-21T08:26:17;9.38;;;7.10;;
5819;SDS011;2936;47.348;9.640;2023-03-21T08:28:44;6.88;;;5.80;;
5819;SDS011;2936;47.348;9.640;2023-03-21T08:31:12;13.57;;;6.32;;
5819;SDS011;2936;47.348;9.640;2023-03-21T08:33:41;6.22;;;5.72;;
5819;SDS011;2936;47.348;9.640;2023-03-21T08:36:09;5.97;;;5.50;;
5819;SDS011;2936;47.348;9.640;2023-03-21T08:38:36;5.78;;;4.95;;
5819;SDS011;2936;47.348;9.640;2023-03-21T08:41:04;11.18;;;6.75;;
5819;SDS011;2936;47.348;9.640;2023-03-21T08:43:32;18.90;;;6.40;;
5819;SDS011;2936;47.348;9.640;2023-03-21T08:45:59;7.97;;;5.45;;
5819;SDS011;2936;47.348;9.640;2023-03-21T08:48:28;6.70;;;6.00;;
5819;SDS011;2936;47.348;9.640;2023-03-21T08:50:56;20.80;;;6.15;;
5819;SDS011;2936;47.348;9.640;2023-03-21T08:53:25;8.32;;;4.88;;
5819;SDS011;2936;47.348;9.640;2023-03-21T08:55:53;7.97;;;4.60;;
5819;SDS011;2936;47.348;9.640;2023-03-21T08:58:20;6.97;;;5.85;;
5819;SDS011;2936;47.348;9.640;2023-03-21T09:00:48;8.32;;;6.13;;
5819;SDS011;2936;47.348;9.640;2023-03-21T09:03:16;8.73;;;5.85;;
5819;SDS011;2936;47.348;9.640;2023-03-21T09:05:44;6.68;;;4.60;;
5819;SDS011;2936;47.348;9.640;2023-03-21T09:08:13;7.65;;;5.55;;
5819;SDS011;2936;47.348;9.640;2023-03-21T09:10:40;4.93;;;4.53;;
5819;SDS011;2936;47.348;9.640;2023-03-21T09:13:07;4.72;;;4.32;;
5819;SDS011;2936;47.348;9.640;2023-03-21T09:15:34;12.18;;;6.05;;
5819;SDS011;2936;47.348;9.640;2023-03-21T09:18:02;20.45;;;6.03;;
5819;SDS011;2936;47.348;9.640;2023-03-21T09:20:40;10.55;;;6.30;;
5819;SDS011;2936;47.348;9.640;2023-03-21T09:23:08;7.00;;;5.55;;
5819;SDS011;2936;47.348;9.640;2023-03-21T09:25:37;5.18;;;4.60;;
5819;SDS011;2936;47.348;9.640;2023-03-21T09:28:05;5.30;;;4.90;;
5819;SDS011;2936;47.348;9.640;2023-03-21T09:30:33;4.28;;;3.97;;
5819;SDS011;2936;47.348;9.640;2023-03-21T09:33:02;4.90;;;4.60;;
5819;SDS011;2936;47.348;9.640;2023-03-21T09:35:33;9.88;;;4.65;;
5819;SDS011;2936;47.348;9.640;2023-03-21T09:38:01;5.75;;;4.25;;
5819;SDS011;2936;47.348;9.640;2023-03-21T09:40:43;4.80;;;4.50;;
5819;SDS011;2936;47.348;9.640;2023-03-21T09:43:16;6.68;;;4.20;;
5819;SDS011;2936;47.348;9.640;2023-03-21T09:45:49;4.60;;;4.30;;
5819;SDS011;2936;47.348;9.640;2023-03-21T09:48:21;4.72;;;4.30;;
5819;SDS011;2936;47.348;9.640;2023-03-21T09:50:55;4.95;;;3.40;;
5819;SDS011;2936;47.348;9.640;2023-03-21T09:53:24;9.43;;;3.50;;
5819;SDS011;2936;47.348;9.640;2023-03-21T09:55:55;10.77;;;3.45;;
5819;SDS011;2936;47.348;9.640;2023-03-21T09:58:25;6.40;;;3.75;;
5819;SDS011;2936;47.348;9.640;2023-03-21T10:00:56;5.43;;;4.05;;
5819;SDS011;2936;47.348;9.640;2023-03-21T10:03:25;4.55;;;4.07;;
5819;SDS011;2936;47.348;9.640;2023-03-21T10:05:56;7.05;;;6.10;;
5819;SDS011;2936;47.348;9.640;2023-03-21T10:08:25;4.22;;;3.83;;
5819;SDS011;2936;47.348;9.640;2023-03-21T10:10:56;5.57;;;3.75;;
5819;SDS011;2936;47.348;9.640;2023-03-21T10:13:27;12.02;;;3.05;;
5819;SDS011;2936;47.348;9.640;2023-03-21T10:15:56;8.82;;;3.50;;
5819;SDS011;2936;47.348;9.640;2023-03-21T10:18:24;4.20;;;3.80;;
5819;SDS011;2936;47.348;9.640;2023-03-21T10:20:53;7.10;;;3.58;;
5819;SDS011;2936;47.348;9.640;2023-03-21T10:23:23;4.10;;;3.80;;
5819;SDS011;2936;47.348;9.640;2023-03-21T10:25:52;3.88;;;3.58;;
5819;SDS011;2936;47.348;9.640;2023-03-21T10:28:23;6.25;;;3.35;;
5819;SDS011;2936;47.348;9.640;2023-03-21T10:30:53;4.72;;;3.03;;
5819;SDS011;2936;47.348;9.640;2023-03-21T10:33:21;9.23;;;3.97;;
5819;SDS011;2936;47.348;9.640;2023-03-21T10:35:50;7.18;;;4.55;;
5819;SDS011;2936;47.348;9.640;2023-03-21T10:38:19;11.82;;;3.63;;
5819;SDS011;2936;47.348;9.640;2023-03-21T10:40:48;4.82;;;3.70;;
5819;SDS011;2936;47.348;9.640;2023-03-21T10:43:29;5.32;;;4.22;;
5819;SDS011;2936;47.348;9.640;2023-03-21T10:46:01;7.82;;;4.60;;
5819;SDS011;2936;47.348;9.640;2023-03-21T10:48:33;4.80;;;4.20;;
5819;SDS011;2936;47.348;9.640;2023-03-21T10:51:01;5.35;;;4.20;;
5819;SDS011;2936;47.348;9.640;2023-03-21T10:53:30;6.03;;;5.20;;
5819;SDS011;2936;47.348;9.640;2023-03-21T10:55:58;4.50;;;4.18;;
5819;SDS011;2936;47.348;9.640;2023-03-21T10:58:26;16.00;;;4.22;;
5819;SDS011;2936;47.348;9.640;2023-03-21T11:00:58;4.38;;;4.05;;
5819;SDS011;2936;47.348;9.640;2023-03-21T11:03:29;5.50;;;3.70;;
5819;SDS011;2936;47.348;9.640;2023-03-21T11:06:03;4.72;;;4.32;;
5819;SDS011;2936;47.348;9.640;2023-03-21T11:08:36;6.15;;;3.75;;
5819;SDS011;2936;47.348;9.640;2023-03-21T11:11:04;6.07;;;3.87;;
5819;SDS011;2936;47.348;9.640;2023-03-21T11:13:36;4.10;;;3.80;;
5819;SDS011;2936;47.348;9.640;2023-03-21T11:16:04;3.67;;;3.47;;
5819;SDS011;2936;47.348;9.640;2023-03-21T11:18:35;3.78;;;3.58;;
5819;SDS011;2936;47.348;9.640;2023-03-21T11:21:06;6.03;;;4.23;;
5819;SDS011;2936;47.348;9.640;2023-03-21T11:23:35;6.43;;;3.83;;
5819;SDS011;2936;47.348;9.640;2023-03-21T11:26:07;6.10;;;3.80;;
5819;SDS011;2936;47.348;9.640;2023-03-21T11:28:36;5.37;;;4.03;;
5819;SDS011;2936;47.348;9.640;2023-03-21T11:31:04;17.07;;;4.03;;
5819;SDS011;2936;47.348;9.640;2023-03-21T11:33:35;3.73;;;3.53;;
5819;SDS011;2936;47.348;9.640;2023-03-21T11:36:10;4.73;;;3.87;;
5819;SDS011;2936;47.348;9.640;2023-03-21T11:38:51;4.17;;;3.80;;
5819;SDS011;2936;47.348;9.640;2023-03-21T11:41:21;5.30;;;4.73;;
5819;SDS011;2936;47.348;9.640;2023-03-21T11:43:50;6.43;;;5.00;;
5819;SDS011;2936;47.348;9.640;2023-03-21T11:46:21;6.93;;;6.43;;
5819;SDS011;2936;47.348;9.640;2023-03-21T11:48:51;5.93;;;5.43;;
5819;SDS011;2936;47.348;9.640;2023-03-21T11:51:21;5.37;;;4.97;;
5819;SDS011;2936;47.348;9.640;2023-03-21T11:53:50;6.33;;;5.93;;
5819;SDS011;2936;47.348;9.640;2023-03-21T11:56:24;6.70;;;6.20;;
5819;SDS011;2936;47.348;9.640;2023-03-21T12:01:40;6.83;;;6.23;;
5819;SDS011;2936;47.348;9.640;2023-03-21T12:04:20;8.63;;;6.73;;
5819;SDS011;2936;47.348;9.640;2023-03-21T12:06:55;11.43;;;7.57;;
5819;SDS011;2936;47.348;9.640;2023-03-21T12:09:27;11.05;;;6.05;;
5819;SDS011;2936;47.348;9.640;2023-03-21T12:11:58;6.40;;;5.90;;
5819;SDS011;2936;47.348;9.640;2023-03-21T12:14:30;6.87;;;6.37;;
5819;SDS011;2936;47.348;9.640;2023-03-21T12:17:05;6.88;;;6.18;;
5819;SDS011;2936;47.348;9.640;2023-03-21T12:19:41;17.55;;;6.40;;
5819;SDS011;2936;47.348;9.640;2023-03-21T12:22:14;7.27;;;6.67;;
5819;SDS011;2936;47.348;9.640;2023-03-21T12:24:46;6.57;;;5.97;;
5819;SDS011;2936;47.348;9.640;2023-03-21T12:27:16;7.33;;;6.30;;
5819;SDS011;2936;47.348;9.640;2023-03-21T12:29:48;6.28;;;5.70;;
5819;SDS011;2936;47.348;9.640;2023-03-21T12:32:22;6.87;;;6.37;;
5819;SDS011;2936;47.348;9.640;2023-03-21T12:35:03;4.65;;;4.35;;
5819;SDS011;2936;47.348;9.640;2023-03-21T12:37:35;5.40;;;5.00;;
5819;SDS011;2936;47.348;9.640;2023-03-21T12:40:08;5.33;;;5.03;;
5819;SDS011;2936;47.348;9.640;2023-03-21T12:45:24;5.90;;;4.80;;
5819;SDS011;2936;47.348;9.640;2023-03-21T12:47:53;4.20;;;3.97;;
5819;SDS011;2936;47.348;9.640;2023-03-21T12:50:25;4.50;;;4.20;;
5819;SDS011;2936;47.348;9.640;2023-03-21T12:52:54;3.90;;;3.70;;
5819;SDS011;2936;47.348;9.640;2023-03-21T12:55:23;8.40;;;4.40;;
5819;SDS011;2936;47.348;9.640;2023-03-21T12:57:52;4.10;;;3.80;;
5819;SDS011;2936;47.348;9.640;2023-03-21T13:00:21;4.20;;;4.00;;
5819;SDS011;2936;47.348;9.640;2023-03-21T13:02:52;4.40;;;4.00;;
5819;SDS011;2936;47.348;9.640;2023-03-21T13:05:21;4.53;;;4.23;;
5819;SDS011;2936;47.348;9.640;2023-03-21T13:07:56;7.60;;;4.57;;
5819;SDS011;2936;47.348;9.640;2023-03-21T13:10:25;4.47;;;4.10;;
5819;SDS011;2936;47.348;9.640;2023-03-21T13:12:56;5.00;;;4.60;;
5819;SDS011;2936;47.348;9.640;2023-03-21T13:15:27;5.07;;;4.77;;
5819;SDS011;2936;47.348;9.640;2023-03-21T13:17:57;5.97;;;4.30;;
5819;SDS011;2936;47.348;9.640;2023-03-21T13:20:28;4.45;;;4.13;;
5819;SDS011;2936;47.348;9.640;2023-03-21T13:22:59;4.25;;;3.95;;
5819;SDS011;2936;47.348;9.640;2023-03-21T13:25:28;4.80;;;4.40;;
5819;SDS011;2936;47.348;9.640;2023-03-21T13:27:59;4.90;;;4.60;;
5819;SDS011;2936;47.348;9.640;2023-03-21T13:30:28;4.00;;;3.80;;
5819;SDS011;2936;47.348;9.640;2023-03-21T13:33:02;4.47;;;4.07;;
5819;SDS011;2936;47.348;9.640;2023-03-21T13:35:33;3.83;;;3.60;;
5819;SDS011;2936;47.348;9.640;2023-03-21T13:38:04;5.37;;;4.87;;
5819;SDS011;2936;47.348;9.640;2023-03-21T13:40:37;5.77;;;5.23;;
5819;SDS011;2936;47.348;9.640;2023-03-21T13:43:18;5.43;;;5.00;;
5819;SDS011;2936;47.348;9.640;2023-03-21T13:45:52;5.57;;;5.07;;
5819;SDS011;2936;47.348;9.640;2023-03-21T13:48:24;4.73;;;4.33;;
5819;SDS011;2936;47.348;9.640;2023-03-21T13:50:58;5.80;;;5.20;;
5819;SDS011;2936;47.348;9.640;2023-03-21T13:53:31;6.90;;;5.00;;
5819;SDS011;2936;47.348;9.640;2023-03-21T13:56:00;4.87;;;4.47;;
5819;SDS011;2936;47.348;9.640;2023-03-21T13:58:33;6.00;;;5.53;;
5819;SDS011;2936;47.348;9.640;2023-03-21T14:01:09;7.20;;;5.50;;
5819;SDS011;2936;47.348;9.640;2023-03-21T14:03:38;5.07;;;4.67;;
5819;SDS011;2936;47.348;9.640;2023-03-21T14:06:07;6.07;;;5.10;;
5819;SDS011;2936;47.348;9.640;2023-03-21T14:08:36;5.73;;;5.23;;
5819;SDS011;2936;47.348;9.640;2023-03-21T14:11:07;5.90;;;5.40;;
5819;SDS011;2936;47.348;9.640;2023-03-21T14:13:36;8.70;;;6.20;;
5819;SDS011;2936;47.348;9.640;2023-03-21T14:16:10;5.60;;;5.27;;
5819;SDS011;2936;47.348;9.640;2023-03-21T14:18:40;7.43;;;6.50;;
5819;SDS011;2936;47.348;9.640;2023-03-21T14:21:12;6.30;;;5.73;;
5819;SDS011;2936;47.348;9.640;2023-03-21T14:23:42;6.40;;;5.90;;
5819;SDS011;2936;47.348;9.640;2023-03-21T14:26:09;6.20;;;5.70;;
5819;SDS011;2936;47.348;9.640;2023-03-21T14:28:38;5.43;;;5.00;;
5819;SDS011;2936;47.348;9.640;2023-03-21T14:31:06;5.53;;;5.23;;
5819;SDS011;2936;47.348;9.640;2023-03-21T14:33:34;6.57;;;5.90;;
5819;SDS011;2936;47.348;9.640;2023-03-21T14:36:04;13.83;;;6.40;;
5819;SDS011;2936;47.348;9.640;2023-03-21T14:38:33;6.73;;;5.90;;
5819;SDS011;2936;47.348;9.640;2023-03-21T14:41:03;7.53;;;5.60;;
5819;SDS011;2936;47.348;9.640;2023-03-21T14:43:31;6.07;;;5.57;;
5819;SDS011;2936;47.348;9.640;2023-03-21T14:45:58;5.83;;;5.10;;
5819;SDS011;2936;47.348;9.640;2023-03-21T14:48:27;8.33;;;6.63;;
5819;SDS011;2936;47.348;9.640;2023-03-21T14:50:55;11.67;;;6.77;;
5819;SDS011;2936;47.348;9.640;2023-03-21T14:53:24;10.70;;;6.23;;
5819;SDS011;2936;47.348;9.640;2023-03-21T14:55:53;10.50;;;6.20;;
5819;SDS011;2936;47.348;9.640;2023-03-21T14:58:24;6.40;;;5.87;;
5819;SDS011;2936;47.348;9.640;2023-03-21T15:00:53;7.20;;;6.60;;
5819;SDS011;2936;47.348;9.640;2023-03-21T15:03:21;7.57;;;6.87;;
5819;SDS011;2936;47.348;9.640;2023-03-21T15:05:52;9.10;;;7.50;;
5819;SDS011;2936;47.348;9.640;2023-03-21T15:08:21;7.90;;;7.20;;
5819;SDS011;2936;47.348;9.640;2023-03-21T15:10:55;8.40;;;6.20;;
5819;SDS011;2936;47.348;9.640;2023-03-21T15:13:26;9.30;;;8.23;;
5819;SDS011;2936;47.348;9.640;2023-03-21T15:15:54;8.07;;;7.37;;
5819;SDS011;2936;47.348;9.640;2023-03-21T15:18:24;8.30;;;7.60;;
5819;SDS011;2936;47.348;9.640;2023-03-21T15:20:52;10.17;;;8.17;;
5819;SDS011;2936;47.348;9.640;2023-03-21T15:23:21;9.20;;;8.20;;
5819;SDS011;2936;47.348;9.640;2023-03-21T15:25:51;10.73;;;8.93;;
5819;SDS011;2936;47.348;9.640;2023-03-21T15:28:19;14.00;;;9.20;;
5819;SDS011;2936;47.348;9.640;2023-03-21T15:30:48;11.30;;;8.30;;
5819;SDS011;2936;47.348;9.640;2023-03-21T15:33:16;18.40;;;8.57;;
5819;SDS011;2936;47.348;9.640;2023-03-21T15:35:45;9.47;;;8.53;;
5819;SDS011;2936;47.348;9.640;2023-03-21T15:38:22;13.20;;;8.20;;